Latest Weather Observations for Point Perpendicular

IDN60801

Issued at 1:35 am EDT Sunday 14 February 2016 (issued every 30 minutes, with the page automatically refreshed every 10 minutes)

About weather observations | Map of weather stations | Latest weather observations for NSW | Other Formats
Station Details ID: 068151 Name: POINT PERPENDICULAR AWS Lat: -35.09 Lon: 150.80 Height: 85.0 m
Data from the previous 72 hours. | See also: Recent months at Point Perpendicular
Date/Time
EDT
Temp
°C
App
Temp
°C
Dew
Point
Rel
Hum
%
Delta-T
°C
Wind Press
QNH
hPa
Press
MSL
hPa
Rain
since 9 am
mm
Dir
 
Spd
km/h
Gust
km/h
Spd
kts
Gust
kts
14/01:30am 23.0 21.7 19.8 82 2.1 NNE 26 43 14 23 1007.1 1006.8 0.0
14/01:00am 23.1 21.0 19.7 81 2.2 NNE 30 41 16 22 1007.2 1006.9 0.0
14/12:30am 23.1 21.1 19.9 82 2.1 NNE 30 43 16 23 1007.8 1007.5 0.0
14/12:00am 23.2 21.7 20.2 83 1.9 NNE 28 43 15 23 1008.3 1008.0 0.0
 
Date/Time
EDT
Temp
°C
App
Temp
°C
Dew
Point
Rel
Hum
%
Delta-T
°C
Wind Press
QNH
hPa
Press
MSL
hPa
Rain
since 9 am
mm
Dir
 
Spd
km/h
Gust
km/h
Spd
kts
Gust
kts
13/11:33pm 23.2 21.0 20.3 84 1.9 NNE 32 50 17 27 1008.3 1008.0 0.0
13/11:30pm 23.2 20.7 20.2 83 1.9 NNE 33 50 18 27 1008.3 1008.0 0.0
13/11:24pm 23.2 20.9 20.2 83 1.9 NNE 32 50 17 27 1008.4 1008.1 0.0
13/11:00pm 23.0 20.6 20.3 85 1.8 NNE 33 48 18 26 1008.6 1008.3 0.0
13/10:41pm 23.1 21.0 20.6 86 1.6 NNE 32 50 17 27 1008.8 1008.5 0.0
13/10:30pm 23.0 20.7 20.5 86 1.6 NNE 33 46 18 25 1008.8 1008.5 0.0
13/10:00pm 23.1 20.8 20.6 86 1.6 NNE 33 46 18 25 1008.9 1008.6 0.0
13/09:30pm 23.2 20.5 20.5 85 1.8 NNE 35 52 19 28 1008.8 1008.5 0.0
13/09:27pm 23.2 20.9 20.5 85 1.8 NNE 33 52 18 28 1008.9 1008.6 0.0
13/09:00pm 23.3 20.7 19.9 81 2.2 NNE 33 46 18 25 1008.8 1008.5 0.0
13/08:40pm 23.1 20.7 19.9 82 2.1 NNE 32 54 17 29 1008.7 1008.4 0.0
13/08:30pm 23.1 20.7 19.9 82 2.1 NNE 32 48 17 26 1008.8 1008.5 0.0
13/08:00pm 23.2 20.7 19.8 81 2.2 NNE 32 43 17 23 1008.6 1008.3 0.0
13/07:30pm 23.5 21.2 20.2 82 2.1 NNE 32 46 17 25 1008.5 1008.2 0.0
13/07:00pm 24.0 21.5 19.7 77 2.8 NNE 32 46 17 25 1008.2 1007.9 0.0
13/06:34pm 24.4 20.7 19.2 73 3.3 NNE 37 65 20 35 1008.1 1007.8 0.0
13/06:30pm 24.4 21.1 19.2 73 3.3 NNE 35 50 19 27 1008.1 1007.8 0.0
13/06:00pm 25.0 21.8 19.4 71 3.6 NNE 35 52 19 28 1008.3 1008.0 0.0
13/05:30pm 25.6 21.9 19.9 70 3.7 NNE 39 54 21 29 1008.5 1008.2 0.0
13/05:16pm 25.3 22.4 19.2 69 3.9 NNE 33 52 18 28 1008.5 1008.2 0.0
13/05:00pm 25.7 22.4 19.3 67 4.1 NNE 35 48 19 26 1008.7 1008.4 0.0
13/04:30pm 26.2 22.8 19.8 68 4.2 NNE 37 57 20 31 1008.9 1008.6 0.0
13/04:23pm 26.1 23.2 20.0 69 4.0 NNE 35 57 19 31 1009.0 1008.7 0.0
13/04:00pm 25.1 22.4 19.2 70 3.8 NNE 32 48 17 26 1009.1 1008.8 0.0
13/03:35pm 26.1 23.3 20.2 70 3.9 NNE 35 54 19 29 1009.4 1009.1 0.0
13/03:30pm 26.1 22.8 20.0 69 4.0 NNE 37 54 20 29 1009.5 1009.2 0.0
13/03:00pm 27.2 24.0 21.0 69 4.1 NNE 39 50 21 27 1009.6 1009.3 0.0
13/02:38pm 26.6 23.9 20.4 69 4.1 NNE 35 54 19 29 1010.0 1009.7 0.0
13/02:30pm 26.4 23.3 20.5 70 3.9 NNE 37 54 20 29 1010.2 1009.9 0.0
13/02:00pm 26.4 23.6 20.3 69 4.0 NE 35 46 19 25 1010.8 1010.5 0.0
13/01:30pm 26.3 24.0 20.2 69 4.0 NNE 32 46 17 25 1011.4 1011.0 0.0
13/01:00pm 26.5 24.3 20.8 71 3.8 NNE 33 46 18 25 1011.8 1011.4 0.0
13/12:30pm 26.1 22.9 20.2 70 3.9 NNE 37 50 20 27 1012.2 1011.8 0.0
13/12:00pm 26.8 24.5 20.2 67 4.3 NNE 32 44 17 24 1012.7 1012.3 0.0
13/11:30am 26.5 23.7 19.1 64 4.8 NNE 32 43 17 23 1013.0 1012.6 0.0
13/11:00am 26.3 24.6 19.7 67 4.3 NNE 28 35 15 19 1013.2 1012.8 0.0
13/10:30am 25.4 24.3 19.5 70 3.8 N 24 32 13 17 1013.5 1013.1 0.0
13/10:00am 24.7 24.3 19.3 72 3.5 NNE 20 30 11 16 1013.7 1013.4 0.0
13/09:30am 24.2 24.3 19.1 73 3.3 N 17 24 9 13 1013.9 1013.6 0.0
13/09:00am 23.3 24.0 19.7 80 2.3 N 15 20 8 11 1013.8 1013.5 0.0
13/08:30am 23.0 22.3 19.4 80 2.3 N 22 30 12 16 1013.9 1013.6 0.0
13/08:00am 22.4 21.6 19.2 82 2.0 N 22 33 12 18 1013.7 1013.4 0.0
13/07:30am 21.7 22.0 19.6 88 1.3 NNE 17 26 9 14 1013.7 1013.4 0.0
13/07:00am 20.9 21.6 19.7 93 0.8 N 15 22 8 12 1013.7 1013.4 0.0
13/06:30am 20.8 21.7 20.0 95 0.5 NNE 15 22 8 12 1013.4 1013.0 0.0
13/06:00am 20.8 21.1 19.6 93 0.8 N 17 26 9 14 1013.3 1012.9 0.0
13/05:30am 21.0 21.4 19.8 93 0.8 N 17 24 9 13 1013.2 1012.8 0.0
13/05:00am 21.1 21.5 19.9 93 0.8 N 17 24 9 13 1013.3 1012.9 0.0
13/04:30am 21.2 22.2 20.2 94 0.6 NNE 15 22 8 12 1013.3 1012.9 0.0
13/04:00am 21.4 21.7 20.4 94 0.6 N 19 26 10 14 1013.7 1013.4 0.0
13/03:30am 21.7 22.0 20.5 93 0.8 N 19 26 10 14 1013.8 1013.5 0.0
13/03:00am 22.0 22.5 20.8 93 0.8 N 19 32 10 17 1013.9 1013.6 0.0
13/02:30am 22.1 21.9 20.6 91 1.0 NNE 22 32 12 17 1014.0 1013.7 0.0
13/02:00am 22.2 21.5 20.3 89 1.2 NNE 24 35 13 19 1014.1 1013.8 0.0
13/01:30am 22.3 21.6 20.2 88 1.4 NNE 24 33 13 18 1014.5 1014.2 0.0
13/01:00am 22.4 21.3 20.3 88 1.4 NNE 26 35 14 19 1014.6 1014.3 0.0
13/12:30am 22.4 20.9 20.3 88 1.4 NNE 28 39 15 21 1014.8 1014.5 0.0
13/12:00am 22.5 20.9 20.0 86 1.6 NNE 28 39 15 21 1015.0 1014.7 0.0
 
Date/Time
EDT
Temp
°C
App
Temp
°C
Dew
Point
Rel
Hum
%
Delta-T
°C
Wind Press
QNH
hPa
Press
MSL
hPa
Rain
since 9 am
mm
Dir
 
Spd
km/h
Gust
km/h
Spd
kts
Gust
kts
12/11:30pm 22.5 21.3 20.0 86 1.6 NNE 26 39 14 21 1015.4 1015.1 0.0
12/11:00pm 22.6 21.0 20.1 86 1.6 NNE 28 41 15 22 1015.3 1015.0 0.0
12/10:30pm 22.8 21.2 20.1 85 1.7 NNE 28 35 15 19 1015.5 1015.2 0.0
12/10:00pm 22.8 21.8 20.5 87 1.5 NNE 26 41 14 22 1015.7 1015.4 0.0
12/09:30pm 22.8 21.3 20.3 86 1.6 NNE 28 43 15 23 1015.5 1015.2 0.0
12/09:00pm 22.9 21.5 20.4 86 1.6 NNE 28 35 15 19 1015.1 1014.8 0.0
12/08:30pm 23.0 22.0 20.5 86 1.6 NNE 26 39 14 21 1015.1 1014.8 0.0
12/08:00pm 23.2 22.2 20.5 85 1.8 NNE 26 35 14 19 1015.0 1014.7 0.0
12/07:30pm 23.4 22.6 20.9 86 1.6 NE 26 33 14 18 1014.6 1014.3 0.0
12/07:00pm 23.5 23.8 20.8 85 1.8 NE 20 32 11 17 1014.2 1013.9 0.0
12/06:30pm 23.6 23.0 20.5 83 2.0 NE 24 35 13 19 1014.2 1013.9 0.0
12/06:00pm 24.3 23.7 20.6 80 2.4 NE 24 35 13 19 1014.4 1014.1 0.0
12/05:30pm 25.2 24.2 20.5 75 3.1 NE 26 39 14 21 1014.3 1014.0 0.0
12/05:00pm 25.7 24.8 19.8 70 3.8 NNE 24 33 13 18 1014.1 1013.8 0.0
12/04:30pm 26.0 25.5 20.8 73 3.4 NE 24 33 13 18 1014.1 1013.8 0.0
12/04:00pm 25.8 25.9 20.4 72 3.5 NE 20 33 11 18 1014.5 1014.2 0.0
12/03:30pm 25.8 25.6 21.2 76 3.0 NE 24 30 13 16 1014.7 1014.4 0.0
12/03:00pm 26.1 26.9 21.3 75 3.2 NE 19 30 10 16 1015.1 1014.8 0.0
12/02:30pm 26.2 27.5 21.6 76 3.1 ENE 17 26 9 14 1015.5 1015.2 0.0
12/02:00pm 25.4 26.1 20.4 74 3.3 ENE 17 24 9 13 1015.8 1015.5 0.0
12/01:30pm 24.9 25.5 20.2 75 3.1 E 17 24 9 13 1016.1 1015.8 0.0
12/01:00pm 24.7 25.9 20.6 78 2.7 ENE 15 22 8 12 1016.2 1015.9 0.0
12/12:30pm 25.7 27.1 21.8 79 2.6 ENE 17 22 9 12 1016.5 1016.2 0.0
12/12:00pm 25.9 27.6 20.9 74 3.3 NE 13 22 7 12 1016.9 1016.6 0.0
12/11:30am 23.9 25.6 21.0 84 1.9 NE 13 20 7 11 1017.0 1016.7 0.0
12/11:00am 24.4 26.0 20.7 80 2.4 NE 13 20 7 11 1017.2 1016.9 0.0
12/10:30am 24.6 26.8 21.1 81 2.3 NE 11 20 6 11 1017.2 1016.9 0.0
12/10:00am 23.6 27.0 20.9 85 1.8 NNW 4 9 2 5 1017.2 1016.9 0.0
12/09:30am 23.2 26.2 20.9 87 1.5 N 6 28 3 15 1017.3 1017.0 0.0
12/09:00am 23.1 26.9 21.0 88 1.4 N 2 6 1 3 1017.5 1017.2 0.0
12/08:30am 23.3 26.5 21.2 88 1.4 NNE 6 9 3 5 1017.3 1017.0 0.0
12/08:00am 22.8 26.7 21.1 90 1.1 ENE 2 6 1 3 1016.9 1016.6 0.0
12/07:30am 22.1 26.6 21.6 97 0.3 CALM 0 0 0 0 1016.8 1016.5 0.0
12/07:00am 21.6 25.3 20.8 95 0.5 NNW 2 7 1 4 1016.5 1016.2 0.0
12/06:30am 21.7 24.7 20.9 95 0.5 E 6 9 3 5 1016.1 1015.8 0.0
12/06:00am 21.7 24.7 20.9 95 0.5 E 6 7 3 4 1015.7 1015.4 0.0
12/05:30am 21.3 24.3 20.8 97 0.3 ENE 6 7 3 4 1015.5 1015.2 0.0
12/05:00am 21.0 25.1 20.7 98 0.2 CALM 0 0 0 0 1015.3 1015.0 0.0
12/04:30am 21.4 24.3 20.7 96 0.5 NNE 6 9 3 5 1015.4 1015.1 0.0
12/04:00am 21.5 24.2 20.7 95 0.5 ENE 7 9 4 5 1015.4 1015.1 0.0
12/03:30am 21.5 24.6 20.3 93 0.8 NE 4 6 2 3 1015.6 1015.3 0.0
12/03:00am 21.7 24.2 20.2 91 1.0 NE 7 9 4 5 1015.6 1015.3 0.0
12/02:30am 21.9 24.4 20.2 90 1.1 ENE 7 9 4 5 1015.8 1015.5 0.0
12/02:00am 22.0 24.6 20.1 89 1.2 ENE 6 9 3 5 1015.7 1015.4 0.0
12/01:30am 22.1 24.0 19.8 87 1.5 ENE 9 11 5 6 1015.9 1015.6 0.0
12/01:00am 22.0 23.8 19.5 86 1.6 NE 9 11 5 6 1016.3 1016.0 0.0
12/12:30am 22.0 23.9 19.7 87 1.5 NE 9 11 5 6 1016.6 1016.3 0.0
12/12:00am 22.3 24.5 19.5 84 1.8 NE 7 9 4 5 1016.9 1016.6 0.0
 
Date/Time
EDT
Temp
°C
App
Temp
°C
Dew
Point
Rel
Hum
%
Delta-T
°C
Wind Press
QNH
hPa
Press
MSL
hPa
Rain
since 9 am
mm
Dir
 
Spd
km/h
Gust
km/h
Spd
kts
Gust
kts
11/11:30pm 22.3 24.5 19.3 83 1.9 NE 6 9 3 5 1017.0 1016.7 0.0
11/11:00pm 22.2 24.3 19.4 84 1.8 NE 7 9 4 5 1017.2 1016.9 0.0
11/10:30pm 22.4 23.9 19.0 81 2.2 NE 9 11 5 6 1016.9 1016.6 0.0
11/10:00pm 22.3 23.9 19.1 82 2.0 NE 9 11 5 6 1016.8 1016.5 0.0
11/09:30pm 22.1 23.5 18.7 81 2.1 NE 9 13 5 7 1016.7 1016.4 0.0
11/09:00pm 22.4 23.8 18.6 79 2.4 NE 9 13 5 7 1016.0 1015.7 0.0
11/08:30pm 22.4 23.2 18.2 77 2.6 NE 11 15 6 8 1015.9 1015.6 0.0
11/08:00pm 22.6 23.5 18.4 77 2.6 NE 11 17 6 9 1015.6 1015.3 0.0
11/07:30pm 22.9 23.9 18.7 77 2.7 NE 11 15 6 8 1015.7 1015.4 0.0
11/07:00pm 23.1 23.8 18.8 77 2.7 NE 13 20 7 11 1015.3 1015.0 0.0
11/06:30pm 23.3 24.1 19.0 77 2.7 ENE 13 17 7 9 1014.9 1014.6 0.0
11/06:00pm 23.5 23.7 18.6 74 3.1 ENE 15 24 8 13 1014.6 1014.3 0.0
11/05:30pm 23.8 24.5 18.9 74 3.1 ENE 13 22 7 12 1014.9 1014.6 0.0
11/05:00pm 23.8 24.8 19.5 77 2.8 ENE 13 20 7 11 1014.7 1014.4 0.0
11/04:30pm 25.0 26.1 19.6 72 3.5 E 13 22 7 12 1014.6 1014.3 0.0
11/04:00pm 24.9 25.9 20.2 75 3.1 ESE 15 22 8 12 1014.8 1014.5 0.0
11/03:30pm 24.5 25.3 19.8 75 3.0 ESE 15 24 8 13 1014.9 1014.6 0.0
11/03:00pm 25.2 26.3 20.5 75 3.1 ESE 15 22 8 12 1015.2 1014.9 0.0
11/02:30pm 25.4 26.6 20.6 75 3.2 ENE 15 22 8 12 1015.5 1015.2 0.0
11/02:00pm 24.6 25.3 19.7 74 3.2 ENE 15 24 8 13 1015.6 1015.3 0.0
11/01:30pm 24.8 25.6 19.8 74 3.2 ENE 15 22 8 12 1015.7 1015.4 0.0
11/01:00pm 24.6 25.3 19.7 74 3.2 ENE 15 22 8 12 1015.7 1015.4 0.0
11/12:30pm 25.0 26.2 19.8 73 3.4 ENE 13 24 7 13 1015.8 1015.5 0.0
11/12:00pm 24.9 25.4 19.3 71 3.6 NE 15 24 8 13 1016.1 1015.8 0.0
11/11:30am 25.2 25.4 18.6 67 4.2 NNE 15 24 8 13 1016.2 1015.9 0.0
11/11:00am 25.4 25.7 17.8 62 4.8 N 13 22 7 12 1016.2 1015.9 0.0
11/10:30am 25.7 25.7 18.9 66 4.4 N 17 26 9 14 1016.1 1015.8 0.0
11/10:00am 24.6 25.2 17.8 66 4.3 N 11 20 6 11 1016.1 1015.8 0.0
11/09:30am 24.3 24.7 18.2 68 3.9 N 13 22 7 12 1016.1 1015.8 0.0
11/09:00am 23.5 24.9 18.6 74 3.1 N 9 22 5 12 1016.1 1015.8 0.0
11/08:30am 22.7 25.1 19.7 83 1.9 NNW 6 11 3 6 1016.0 1015.7 0.0
11/08:00am 21.3 23.8 19.9 92 0.9 NW 6 7 3 4 1015.7 1015.4 0.0
11/07:30am 20.5 22.9 20.0 97 0.3 NW 7 9 4 5 1015.3 1015.0 0.0
11/07:00am 20.0 22.1 19.3 96 0.4 NNW 7 9 4 5 1014.9 1014.6 0.0
11/06:30am 20.1 21.4 18.4 90 1.1 NNE 9 11 5 6 1014.4 1014.1 0.0
11/06:00am 20.2 21.6 18.7 91 0.9 NNE 9 11 5 6 1014.0 1013.7 0.0
11/05:30am 20.1 21.6 18.8 92 0.8 NNE 9 11 5 6 1013.7 1013.4 0.0
11/05:00am 20.1 21.2 18.9 93 0.8 N 11 13 6 7 1013.6 1013.2 0.0
11/04:30am 20.3 21.8 18.8 91 0.9 N 9 11 5 6 1013.6 1013.2 0.0
11/04:00am 20.4 21.4 18.7 90 1.1 N 11 17 6 9 1013.4 1013.0 0.0
11/03:30am 20.6 21.7 18.9 90 1.1 NNE 11 15 6 8 1013.4 1013.0 0.0
11/03:00am 20.8 21.5 18.9 89 1.2 NNE 13 17 7 9 1013.6 1013.2 0.0
11/02:30am 21.0 22.2 19.1 89 1.2 N 11 15 6 8 1013.8 1013.5 0.0
11/02:00am 21.3 21.8 19.2 88 1.3 N 15 22 8 12 1013.9 1013.6 0.0

Other Formats:

Comma delimited format used in spreadsheet applications
http://www.bom.gov.au/fwo/IDN60801/IDN60801.95940.axf

JavaScript Object Notation format (JSON) in row-major order
http://www.bom.gov.au/fwo/IDN60801/IDN60801.95940.json